createdAt,value
2023-02-16T00:01:56.022Z,49.61
2023-02-16T00:04:31.699Z,49.79
2023-02-16T00:06:58.437Z,49.72
2023-02-16T00:09:25.278Z,49.76
2023-02-16T00:12:12.000Z,49.73
2023-02-16T00:14:39.969Z,49.91
2023-02-16T00:17:07.143Z,49.94
2023-02-16T00:19:40.770Z,49.86
2023-02-16T00:22:09.184Z,49.95
2023-02-16T00:24:35.830Z,49.90
2023-02-16T00:27:02.468Z,50.02
2023-02-16T00:29:36.569Z,49.95
2023-02-16T00:32:05.868Z,49.95
2023-02-16T00:34:38.034Z,49.86
2023-02-16T00:37:10.095Z,50.01
2023-02-16T00:39:37.660Z,49.76
2023-02-16T00:42:07.163Z,49.92
2023-02-16T00:44:41.177Z,49.94
2023-02-16T00:47:17.129Z,49.85
2023-02-16T00:49:43.868Z,49.96
2023-02-16T00:52:34.294Z,49.83
2023-02-16T00:55:04.385Z,49.82
2023-02-16T00:57:36.689Z,49.88
2023-02-16T01:00:28.988Z,49.93
2023-02-16T01:02:58.690Z,49.98
2023-02-16T01:05:25.736Z,49.93
2023-02-16T01:08:11.119Z,49.98
2023-02-16T01:11:07.550Z,50.02
2023-02-16T01:13:40.121Z,50.06
2023-02-16T01:16:15.164Z,50.07
2023-02-16T01:18:41.792Z,50.03
2023-02-16T01:21:08.321Z,50.18
2023-02-16T01:23:34.881Z,50.14
2023-02-16T01:26:01.494Z,50.11
2023-02-16T01:28:28.338Z,50.33
2023-02-16T01:30:55.095Z,50.29
2023-02-16T01:33:22.527Z,50.32
2023-02-16T01:35:50.500Z,50.33
2023-02-16T01:38:23.681Z,50.39
2023-02-16T01:41:09.564Z,50.50
2023-02-16T01:43:48.294Z,50.40
2023-02-16T01:46:25.752Z,50.44
2023-02-16T01:48:52.364Z,50.43
2023-02-16T01:51:28.444Z,50.43
2023-02-16T01:54:06.082Z,50.64
2023-02-16T01:56:36.278Z,50.40
2023-02-16T01:59:33.345Z,50.65
2023-02-16T02:02:03.629Z,50.64
2023-02-16T02:04:58.418Z,50.55
2023-02-16T02:07:54.998Z,50.74
2023-02-16T02:10:40.066Z,50.69
2023-02-16T02:13:29.318Z,50.81
2023-02-16T02:15:59.406Z,50.68
2023-02-16T02:18:26.193Z,50.74
2023-02-16T02:21:34.346Z,50.90
2023-02-16T02:24:30.425Z,50.90
2023-02-16T02:27:35.768Z,50.78
2023-02-16T02:30:26.314Z,50.86
2023-02-16T02:33:08.858Z,50.95
2023-02-16T02:35:44.113Z,50.78
2023-02-16T02:38:16.573Z,50.77
2023-02-16T02:41:04.960Z,51.00
2023-02-16T02:43:43.960Z,50.84
2023-02-16T02:46:19.228Z,50.79
2023-02-16T02:48:46.777Z,50.94
2023-02-16T02:51:30.001Z,50.89
2023-02-16T02:54:58.677Z,50.99
2023-02-16T02:58:01.910Z,50.87
2023-02-16T03:00:47.924Z,50.90
2023-02-16T03:03:24.498Z,51.23
2023-02-16T03:06:01.099Z,51.05
2023-02-16T03:08:31.634Z,51.12
2023-02-16T03:11:23.384Z,51.20
2023-02-16T03:13:58.599Z,51.00
2023-02-16T03:16:41.897Z,51.20
2023-02-16T03:19:31.255Z,51.29
2023-02-16T03:22:18.294Z,51.28
2023-02-16T03:25:04.185Z,51.39
2023-02-16T03:27:52.378Z,51.44
2023-02-16T03:30:21.086Z,51.19
2023-02-16T03:32:48.156Z,51.50
2023-02-16T03:35:15.313Z,51.05
2023-02-16T03:37:43.675Z,51.51
2023-02-16T03:40:29.465Z,51.41
2023-02-16T03:42:58.254Z,51.45
2023-02-16T03:45:25.823Z,51.42
2023-02-16T03:47:52.959Z,51.47
2023-02-16T03:50:19.720Z,51.56
2023-02-16T03:52:46.439Z,51.57
2023-02-16T03:55:13.584Z,51.59
2023-02-16T03:57:40.226Z,51.55
2023-02-16T04:00:07.895Z,51.64
2023-02-16T04:02:39.647Z,51.81
2023-02-16T04:05:06.648Z,51.71
2023-02-16T04:07:33.326Z,51.52
2023-02-16T04:09:59.863Z,51.65
2023-02-16T04:12:38.471Z,51.73
2023-02-16T04:15:07.567Z,51.80
2023-02-16T04:17:34.267Z,51.89
2023-02-16T04:20:00.950Z,51.87
2023-02-16T04:22:27.553Z,51.89
2023-02-16T04:24:54.116Z,52.07
2023-02-16T04:27:20.753Z,52.11
2023-02-16T04:29:47.389Z,52.16
2023-02-16T04:32:14.294Z,52.04
2023-02-16T04:34:40.969Z,52.27
2023-02-16T04:37:07.607Z,52.30
2023-02-16T04:39:34.319Z,52.37
2023-02-16T04:42:00.849Z,52.38
2023-02-16T04:44:27.407Z,52.50
2023-02-16T04:46:54.143Z,52.48
2023-02-16T04:49:20.997Z,52.45
2023-02-16T04:51:47.826Z,52.40
2023-02-16T04:54:14.668Z,52.50
2023-02-16T04:56:44.893Z,52.25
2023-02-16T04:59:11.525Z,52.57
2023-02-16T05:01:38.225Z,52.50
2023-02-16T05:04:04.968Z,52.64
2023-02-16T05:06:31.536Z,52.69
2023-02-16T05:08:58.070Z,52.81
2023-02-16T05:11:43.241Z,52.67
2023-02-16T05:14:37.537Z,52.67
2023-02-16T05:17:04.471Z,52.62
2023-02-16T05:19:31.104Z,52.73
2023-02-16T05:21:57.849Z,52.83
2023-02-16T05:24:25.085Z,52.97
2023-02-16T05:26:52.756Z,52.99
2023-02-16T05:29:19.595Z,53.18
2023-02-16T05:31:46.347Z,53.19
2023-02-16T05:34:12.982Z,53.21
2023-02-16T05:36:39.712Z,53.25
2023-02-16T05:39:06.349Z,53.38
2023-02-16T05:41:32.991Z,53.47
2023-02-16T05:44:01.773Z,53.40
2023-02-16T05:46:32.065Z,53.45
2023-02-16T05:48:59.759Z,53.57
2023-02-16T05:51:26.908Z,53.79
2023-02-16T05:53:53.748Z,53.57
2023-02-16T05:56:20.521Z,53.66
2023-02-16T05:58:47.535Z,53.56
2023-02-16T06:01:14.989Z,53.79
2023-02-16T06:03:41.785Z,53.73
2023-02-16T06:06:09.696Z,53.92
2023-02-16T06:08:37.050Z,53.79
2023-02-16T06:11:07.100Z,53.96
2023-02-16T06:13:34.342Z,53.87
2023-02-16T06:16:00.908Z,53.94
2023-02-16T06:18:27.492Z,54.12
2023-02-16T06:20:56.786Z,54.04
2023-02-16T06:23:23.428Z,54.09
2023-02-16T06:25:51.880Z,54.31
2023-02-16T06:28:18.437Z,54.14
2023-02-16T06:30:44.976Z,54.06
2023-02-16T06:33:11.709Z,54.07
2023-02-16T06:35:38.447Z,54.16
2023-02-16T06:38:05.087Z,54.26
2023-02-16T06:40:31.632Z,54.42
2023-02-16T06:42:58.172Z,54.27
2023-02-16T06:45:24.799Z,54.29
2023-02-16T06:47:51.320Z,54.47
2023-02-16T06:50:18.164Z,54.40
2023-02-16T06:52:44.800Z,54.57
2023-02-16T06:55:11.555Z,54.63
2023-02-16T06:57:38.279Z,54.52
2023-02-16T07:00:07.575Z,54.60
2023-02-16T07:02:35.652Z,54.66
2023-02-16T07:05:03.287Z,54.62
2023-02-16T07:07:30.973Z,54.78
2023-02-16T07:09:58.120Z,54.68
2023-02-16T07:12:25.053Z,54.54
2023-02-16T07:14:51.698Z,54.87
2023-02-16T07:17:18.227Z,54.68
2023-02-16T07:19:44.772Z,54.77
2023-02-16T07:22:11.401Z,54.86
2023-02-16T07:24:37.935Z,54.80
2023-02-16T07:27:05.305Z,54.67
2023-02-16T07:29:31.924Z,54.68
2023-02-16T07:31:58.570Z,54.62
2023-02-16T07:34:25.501Z,54.80
2023-02-16T07:36:52.037Z,54.91
2023-02-16T07:39:18.703Z,54.69
2023-02-16T07:41:45.620Z,54.74
2023-02-16T07:44:17.678Z,54.71
2023-02-16T07:46:44.420Z,55.01
2023-02-16T07:49:11.051Z,54.97
2023-02-16T07:51:37.994Z,54.94
2023-02-16T07:54:04.632Z,55.01
2023-02-16T07:56:35.015Z,55.19
2023-02-16T07:59:02.924Z,55.01
2023-02-16T08:01:30.888Z,55.29
2023-02-16T08:03:57.850Z,55.24
2023-02-16T08:06:24.570Z,55.31
2023-02-16T08:08:51.241Z,55.27
2023-02-16T08:11:23.899Z,55.01
2023-02-16T08:13:51.253Z,55.49
2023-02-16T08:16:20.582Z,55.39
2023-02-16T08:18:47.387Z,55.49
2023-02-16T08:21:16.481Z,55.30
2023-02-16T08:23:47.863Z,55.38
2023-02-16T08:26:17.642Z,55.46
2023-02-16T08:28:50.008Z,55.47
2023-02-16T08:31:21.021Z,55.12
2023-02-16T08:33:48.309Z,55.36
2023-02-16T08:36:21.325Z,55.38
2023-02-16T08:38:50.901Z,55.41
2023-02-16T08:41:22.250Z,55.32
2023-02-16T08:43:49.698Z,55.46
2023-02-16T08:46:16.596Z,55.34
2023-02-16T08:48:45.370Z,55.57
2023-02-16T08:51:20.354Z,55.35
2023-02-16T08:53:47.009Z,55.67
2023-02-16T08:56:14.866Z,55.41
2023-02-16T08:58:41.510Z,55.46
2023-02-16T09:01:09.604Z,55.34
2023-02-16T09:03:42.844Z,55.48
2023-02-16T09:06:12.274Z,55.42
2023-02-16T09:08:40.218Z,55.41
2023-02-16T09:11:15.870Z,55.58
2023-02-16T09:13:43.455Z,55.40
2023-02-16T09:16:14.236Z,55.63
2023-02-16T09:18:42.120Z,55.46
2023-02-16T09:21:19.819Z,55.52
2023-02-16T09:23:48.605Z,55.45
2023-02-16T09:26:17.188Z,55.59
2023-02-16T09:28:45.677Z,55.84
2023-02-16T09:31:20.521Z,55.58
2023-02-16T09:33:47.336Z,55.59
2023-02-16T09:36:14.181Z,55.36
2023-02-16T09:38:41.220Z,55.75
2023-02-16T09:41:21.793Z,55.46
2023-02-16T09:43:54.271Z,55.66
2023-02-16T09:46:22.925Z,55.36
2023-02-16T09:48:51.615Z,55.59
2023-02-16T09:51:37.616Z,55.47
2023-02-16T09:54:26.785Z,55.53
2023-02-16T09:57:01.179Z,55.43
2023-02-16T09:59:38.196Z,55.45
2023-02-16T10:02:26.565Z,55.22
2023-02-16T10:05:08.581Z,55.10
2023-02-16T10:08:02.812Z,55.42
2023-02-16T10:10:46.954Z,55.26
2023-02-16T10:13:22.704Z,55.25
2023-02-16T10:15:53.594Z,55.57
2023-02-16T10:18:31.645Z,55.30
2023-02-16T10:21:02.363Z,55.81
2023-02-16T10:23:51.846Z,55.76
2023-02-16T10:26:24.649Z,55.57
2023-02-16T10:29:00.188Z,55.63
2023-02-16T10:31:49.531Z,55.94
2023-02-16T10:34:31.080Z,55.72
2023-02-16T10:37:14.867Z,55.24
2023-02-16T10:40:10.693Z,55.71
2023-02-16T10:42:44.497Z,55.71
2023-02-16T10:45:31.930Z,55.82
2023-02-16T10:47:58.967Z,55.88
2023-02-16T10:50:31.626Z,56.09
2023-02-16T10:53:01.732Z,56.28
2023-02-16T10:55:28.497Z,56.08
2023-02-16T10:58:01.804Z,56.26
2023-02-16T11:01:11.363Z,56.61
2023-02-16T11:03:52.023Z,56.46
2023-02-16T11:06:25.602Z,56.27
2023-02-16T11:09:01.200Z,56.47
2023-02-16T11:11:29.422Z,56.40
2023-02-16T11:14:06.376Z,56.57
2023-02-16T11:16:34.580Z,56.53
2023-02-16T11:19:17.799Z,56.61
2023-02-16T11:21:44.467Z,56.71
2023-02-16T11:24:23.914Z,56.43
2023-02-16T11:27:21.409Z,56.73
2023-02-16T11:29:48.992Z,56.53
2023-02-16T11:32:18.601Z,56.40
2023-02-16T11:34:49.435Z,56.37
2023-02-16T11:37:27.948Z,56.56
2023-02-16T11:40:02.573Z,56.52
2023-02-16T11:42:43.978Z,56.63
2023-02-16T11:45:22.877Z,56.49
2023-02-16T11:48:13.878Z,56.73
2023-02-16T11:51:05.180Z,56.54
2023-02-16T11:53:38.380Z,56.73
2023-02-16T11:56:13.417Z,56.80
2023-02-16T11:58:40.671Z,56.93
2023-02-16T12:01:10.346Z,56.78
2023-02-16T12:04:14.410Z,57.29
2023-02-16T12:07:17.373Z,57.23
2023-02-16T12:10:02.767Z,57.41
2023-02-16T12:12:32.368Z,57.32
2023-02-16T12:15:22.545Z,57.66
2023-02-16T12:18:14.596Z,57.80
2023-02-16T12:21:03.418Z,57.71
2023-02-16T12:23:59.151Z,57.73
2023-02-16T12:26:52.313Z,57.78
2023-02-16T12:29:27.650Z,58.00
2023-02-16T12:31:54.208Z,57.77
2023-02-16T12:34:35.874Z,57.65
2023-02-16T12:37:25.652Z,57.94
2023-02-16T12:40:10.986Z,58.04
2023-02-16T12:43:08.691Z,58.12
2023-02-16T12:45:39.040Z,58.05
2023-02-16T12:48:28.686Z,58.38
2023-02-16T12:50:57.268Z,58.38
2023-02-16T12:53:49.399Z,58.52
2023-02-16T12:56:28.836Z,58.67
2023-02-16T12:59:06.744Z,58.36
2023-02-16T13:01:36.551Z,58.56
2023-02-16T13:04:18.588Z,58.78
2023-02-16T13:07:29.314Z,58.81
2023-02-16T13:10:04.762Z,58.78
2023-02-16T13:12:49.618Z,58.42
2023-02-16T13:15:21.183Z,58.40
2023-02-16T13:17:57.069Z,58.44
2023-02-16T13:20:25.324Z,58.20
2023-02-16T13:23:18.467Z,58.41
2023-02-16T13:26:13.057Z,58.20
2023-02-16T13:28:55.682Z,57.54
2023-02-16T13:31:35.034Z,57.34
2023-02-16T13:34:18.527Z,57.15
2023-02-16T13:36:53.568Z,57.24
2023-02-16T13:39:35.154Z,57.03
2023-02-16T13:42:29.648Z,57.10
2023-02-16T13:44:59.667Z,56.98
2023-02-16T13:47:39.800Z,56.85
2023-02-16T13:50:31.685Z,56.84
2023-02-16T13:53:17.425Z,56.74
2023-02-16T13:55:43.937Z,56.59
2023-02-16T13:58:32.408Z,56.51
2023-02-16T14:00:59.243Z,56.40
2023-02-16T14:03:38.274Z,56.13
2023-02-16T14:06:34.114Z,56.37
2023-02-16T14:09:12.714Z,56.13
2023-02-16T14:11:54.697Z,56.21
2023-02-16T14:14:29.124Z,55.78
2023-02-16T14:16:55.867Z,55.76
2023-02-16T14:19:25.882Z,55.58
2023-02-16T14:21:53.460Z,55.47
2023-02-16T14:24:25.814Z,55.70
2023-02-16T14:26:54.495Z,55.71
2023-02-16T14:29:28.509Z,55.52
2023-02-16T14:32:01.628Z,55.25
2023-02-16T14:34:36.624Z,55.36
2023-02-16T14:37:17.118Z,55.71
2023-02-16T14:40:06.562Z,55.48
2023-02-16T14:42:35.046Z,55.28
2023-02-16T14:45:08.431Z,55.81
2023-02-16T14:47:40.805Z,55.64
2023-02-16T14:50:16.047Z,55.41
2023-02-16T14:52:57.524Z,55.39
2023-02-16T14:55:33.177Z,55.22
2023-02-16T14:58:22.148Z,55.26
2023-02-16T15:01:04.422Z,55.50
2023-02-16T15:03:48.126Z,55.21
2023-02-16T15:06:29.042Z,55.24
2023-02-16T15:08:59.669Z,55.18
2023-02-16T15:12:01.448Z,55.32
2023-02-16T15:14:29.913Z,55.17
2023-02-16T15:16:57.984Z,55.59
2023-02-16T15:19:31.073Z,55.40
2023-02-16T15:22:13.375Z,55.63
2023-02-16T15:24:41.339Z,55.58
2023-02-16T15:27:21.415Z,55.30
2023-02-16T15:30:03.907Z,55.52
2023-02-16T15:32:32.625Z,55.34
2023-02-16T15:34:59.632Z,55.16
2023-02-16T15:37:32.956Z,55.18
2023-02-16T15:40:26.778Z,55.07
2023-02-16T15:42:55.929Z,55.44
2023-02-16T15:45:35.434Z,55.37
2023-02-16T15:48:32.482Z,55.31
2023-02-16T15:51:07.408Z,55.17
2023-02-16T15:53:45.101Z,55.29
2023-02-16T15:56:32.833Z,55.36
2023-02-16T15:59:15.758Z,55.30
2023-02-16T16:01:42.844Z,55.61
2023-02-16T16:04:22.153Z,55.38
2023-02-16T16:06:51.129Z,55.60
2023-02-16T16:09:25.688Z,55.12
2023-02-16T16:11:55.861Z,55.46
2023-02-16T16:14:24.134Z,55.42
2023-02-16T16:16:51.602Z,55.03
2023-02-16T16:19:22.429Z,55.03
2023-02-16T16:21:55.607Z,55.48
2023-02-16T16:24:38.234Z,55.13
2023-02-16T16:27:14.491Z,55.26
2023-02-16T16:29:47.411Z,55.25
2023-02-16T16:32:24.931Z,55.36
2023-02-16T16:34:53.759Z,55.05
2023-02-16T16:37:37.410Z,55.07
2023-02-16T16:40:19.904Z,55.52
2023-02-16T16:43:04.949Z,55.22
2023-02-16T16:45:35.832Z,55.34
2023-02-16T16:48:09.610Z,55.06
2023-02-16T16:50:39.774Z,55.23
2023-02-16T16:53:25.309Z,55.25
2023-02-16T16:55:52.050Z,55.28
2023-02-16T16:58:18.680Z,55.52
2023-02-16T17:00:45.524Z,55.36
2023-02-16T17:03:14.523Z,55.75
2023-02-16T17:05:41.662Z,55.56
2023-02-16T17:08:08.708Z,55.75
2023-02-16T17:10:37.598Z,55.63
2023-02-16T17:13:04.846Z,55.92
2023-02-16T17:15:33.846Z,56.00
2023-02-16T17:18:00.898Z,56.06
2023-02-16T17:20:27.524Z,56.51
2023-02-16T17:22:54.272Z,56.68
2023-02-16T17:25:20.896Z,56.65
2023-02-16T17:27:47.548Z,57.04
2023-02-16T17:30:14.945Z,57.28
2023-02-16T17:32:41.522Z,57.17
2023-02-16T17:35:08.333Z,57.36
2023-02-16T17:37:35.590Z,57.24
2023-02-16T17:40:04.819Z,57.40
2023-02-16T17:42:31.651Z,57.63
2023-02-16T17:44:58.287Z,57.58
2023-02-16T17:47:24.923Z,57.76
2023-02-16T17:49:51.562Z,57.88
2023-02-16T17:52:18.308Z,58.13
2023-02-16T17:54:44.933Z,58.24
2023-02-16T17:57:11.881Z,58.30
2023-02-16T17:59:41.294Z,58.37
2023-02-16T18:02:10.989Z,58.15
2023-02-16T18:04:41.057Z,58.46
2023-02-16T18:07:13.394Z,58.59
2023-02-16T18:09:40.526Z,58.61
2023-02-16T18:12:07.566Z,58.62
2023-02-16T18:14:36.059Z,58.87
2023-02-16T18:17:04.015Z,58.59
2023-02-16T18:19:32.002Z,58.63
2023-02-16T18:21:59.033Z,58.88
2023-02-16T18:24:25.767Z,59.05
2023-02-16T18:26:52.418Z,58.85
2023-02-16T18:29:19.248Z,58.86
2023-02-16T18:31:46.048Z,59.43
2023-02-16T18:34:12.933Z,58.98
2023-02-16T18:36:39.892Z,59.03
2023-02-16T18:39:07.956Z,59.13
2023-02-16T18:41:34.891Z,59.26
2023-02-16T18:44:01.740Z,58.95
2023-02-16T18:46:28.651Z,59.68
2023-02-16T18:48:55.214Z,59.51
2023-02-16T18:51:25.026Z,59.86
2023-02-16T18:53:51.866Z,59.76
2023-02-16T18:56:18.604Z,59.48
2023-02-16T18:58:45.244Z,59.84
2023-02-16T19:01:31.198Z,60.05
2023-02-16T19:03:59.481Z,59.83
2023-02-16T19:06:28.601Z,59.95
2023-02-16T19:08:56.369Z,59.97
2023-02-16T19:11:22.901Z,60.10
2023-02-16T19:13:49.643Z,59.96
2023-02-16T19:16:17.135Z,60.27
2023-02-16T19:18:43.728Z,59.99
2023-02-16T19:21:13.145Z,59.90
2023-02-16T19:23:40.792Z,60.17
2023-02-16T19:26:09.586Z,59.95
2023-02-16T19:28:37.040Z,60.01
2023-02-16T19:31:06.566Z,60.11
2023-02-16T19:33:34.403Z,60.05
2023-02-16T19:36:01.763Z,60.24
2023-02-16T19:38:29.104Z,60.54
2023-02-16T19:40:55.798Z,60.41
2023-02-16T19:43:22.475Z,60.12
2023-02-16T19:45:50.137Z,60.60
2023-02-16T19:48:17.283Z,60.38
2023-02-16T19:50:44.328Z,60.38
2023-02-16T19:53:10.967Z,60.34
2023-02-16T19:55:42.936Z,60.45
2023-02-16T19:58:09.562Z,60.09
2023-02-16T20:00:38.131Z,60.08
2023-02-16T20:03:05.437Z,60.47
2023-02-16T20:05:33.056Z,60.41
2023-02-16T20:08:00.008Z,60.42
2023-02-16T20:10:27.046Z,60.14
2023-02-16T20:12:53.891Z,60.46
2023-02-16T20:15:20.427Z,60.46
2023-02-16T20:17:47.264Z,60.36
2023-02-16T20:20:13.902Z,60.63
2023-02-16T20:22:40.538Z,60.51
2023-02-16T20:25:07.380Z,60.68
2023-02-16T20:27:34.324Z,60.95
2023-02-16T20:30:06.653Z,61.03
2023-02-16T20:32:33.945Z,60.93
2023-02-16T20:35:07.241Z,61.13
2023-02-16T20:37:34.389Z,60.83
2023-02-16T20:40:01.127Z,61.09
2023-02-16T20:42:27.765Z,61.10
2023-02-16T20:44:54.397Z,61.09
2023-02-16T20:47:21.037Z,61.38
2023-02-16T20:49:47.734Z,61.24
2023-02-16T20:52:14.540Z,61.24
2023-02-16T20:54:41.342Z,61.53
2023-02-16T20:57:15.504Z,61.60
2023-02-16T20:59:48.036Z,61.30
2023-02-16T21:02:15.012Z,61.49
2023-02-16T21:04:41.681Z,61.23
2023-02-16T21:07:08.974Z,61.49
2023-02-16T21:09:35.605Z,61.46
2023-02-16T21:12:02.142Z,61.73
2023-02-16T21:14:28.772Z,61.56
2023-02-16T21:16:55.403Z,61.65
2023-02-16T21:19:23.521Z,62.09
2023-02-16T21:21:51.277Z,61.90
2023-02-16T21:24:17.879Z,62.03
2023-02-16T21:26:48.412Z,62.11
2023-02-16T21:29:15.151Z,62.38
2023-02-16T21:31:41.867Z,62.58
2023-02-16T21:34:08.914Z,62.24
2023-02-16T21:36:35.791Z,62.48
2023-02-16T21:39:03.037Z,62.58
2023-02-16T21:41:29.975Z,62.28
2023-02-16T21:44:02.075Z,62.66
2023-02-16T21:46:31.968Z,62.44
2023-02-16T21:48:59.248Z,62.71
2023-02-16T21:51:31.996Z,62.67
2023-02-16T21:53:59.642Z,62.46
2023-02-16T21:56:43.385Z,62.95
2023-02-16T21:59:16.372Z,62.63
2023-02-16T22:01:53.242Z,62.35
2023-02-16T22:04:22.105Z,62.69
2023-02-16T22:06:50.720Z,62.37
2023-02-16T22:09:20.943Z,62.31
2023-02-16T22:11:47.978Z,62.21
2023-02-16T22:14:15.535Z,62.63
2023-02-16T22:16:44.869Z,62.44
2023-02-16T22:19:13.313Z,62.47
2023-02-16T22:21:42.413Z,62.57
2023-02-16T22:24:12.104Z,62.63
2023-02-16T22:26:38.851Z,62.26
2023-02-16T22:29:07.579Z,62.38
2023-02-16T22:31:34.556Z,62.38
2023-02-16T22:34:03.686Z,62.41
2023-02-16T22:36:30.526Z,62.15
2023-02-16T22:38:57.467Z,62.58
2023-02-16T22:41:24.648Z,62.48
2023-02-16T22:43:56.071Z,62.46
2023-02-16T22:46:24.165Z,62.52
2023-02-16T22:48:52.046Z,62.53
2023-02-16T22:51:20.788Z,62.62
2023-02-16T22:53:47.949Z,62.64
2023-02-16T22:56:18.260Z,62.73
2023-02-16T22:58:45.212Z,62.95
2023-02-16T23:01:15.103Z,62.69
2023-02-16T23:03:42.643Z,62.80
2023-02-16T23:06:18.322Z,62.52
2023-02-16T23:08:46.601Z,62.48
2023-02-16T23:11:13.541Z,62.51
2023-02-16T23:13:40.280Z,62.78
2023-02-16T23:16:15.362Z,62.86
2023-02-16T23:18:42.874Z,62.62
2023-02-16T23:21:21.902Z,63.00
2023-02-16T23:23:50.176Z,62.94
2023-02-16T23:26:18.370Z,62.82
2023-02-16T23:28:45.292Z,62.83
2023-02-16T23:31:13.473Z,63.04
2023-02-16T23:33:40.715Z,62.95
2023-02-16T23:36:07.799Z,63.12
2023-02-16T23:38:35.007Z,62.76
2023-02-16T23:41:07.720Z,63.42
2023-02-16T23:43:35.041Z,63.31
2023-02-16T23:46:02.908Z,63.31
2023-02-16T23:48:30.670Z,63.27
2023-02-16T23:50:57.915Z,63.08
2023-02-16T23:53:27.015Z,63.37
2023-02-16T23:56:07.141Z,63.23
2023-02-16T23:58:36.975Z,63.26
